Time;durP1;ratioP1;P1;durP2;ratioP2;P2;SDS_P1;SDS_P2;PMS_P1;PMS_P2;Temp;Humidity;BMP_temperature;BMP_pressure;BME280_temperature;BME280_humidity;BME280_pressure;Samples;Min_cycle;Max_cycle;Signal;HPM_P1;HPM_P2
2022/07/07 00:00:10;;;;;;;7.03;2.40;;;;;;;15.80;74.64;96855.63;5080158;28;20230;-71
2022/07/07 00:02:36;;;;;;;9.13;2.70;;;;;;;15.86;74.94;96845.84;5078582;28;20216;-73
2022/07/07 00:05:03;;;;;;;4.75;2.28;;;;;;;15.59;75.59;96850.34;5080029;28;20218;-71
2022/07/07 00:07:29;;;;;;;6.28;2.15;;;;;;;15.64;75.93;96855.91;5079930;28;20208;-70
2022/07/07 00:09:56;;;;;;;4.57;2.53;;;;;;;15.78;75.44;96852.31;5080267;28;20739;-71
2022/07/07 00:12:22;;;;;;;4.60;2.55;;;;;;;15.68;76.23;96851.84;5079463;28;20218;-71
2022/07/07 00:14:49;;;;;;;6.28;2.70;;;;;;;15.87;75.63;96858.13;5079579;28;20860;-70
2022/07/07 00:17:17;;;;;;;4.65;2.55;;;;;;;15.78;76.14;96852.31;5079569;28;20222;-71
2022/07/07 00:19:44;;;;;;;5.22;2.40;;;;;;;15.80;75.52;96847.66;5079911;28;20231;-71
2022/07/07 00:22:10;;;;;;;4.47;2.17;;;;;;;15.73;76.05;96849.41;5080871;28;20212;-71
2022/07/07 00:24:37;;;;;;;3.72;2.28;;;;;;;15.69;75.75;96851.63;5080843;28;20227;-70
2022/07/07 00:27:04;;;;;;;3.63;2.50;;;;;;;15.75;75.67;96850.06;5081262;28;20196;-70
2022/07/07 00:29:30;;;;;;;3.50;2.33;;;;;;;15.73;75.60;96847.56;5080955;28;20634;-70
2022/07/07 00:31:56;;;;;;;3.70;2.30;;;;;;;15.61;75.83;96849.13;5081681;28;20200;-71
2022/07/07 00:34:24;;;;;;;5.55;3.08;;;;;;;15.83;76.05;96853.38;5078269;28;20207;-70
2022/07/07 00:36:51;;;;;;;4.63;2.60;;;;;;;15.60;76.47;96849.31;5081190;28;20219;-71
2022/07/07 00:39:18;;;;;;;4.32;2.40;;;;;;;15.55;76.29;96843.78;5081248;28;20224;-70
2022/07/07 00:41:45;;;;;;;4.15;2.40;;;;;;;15.31;76.79;96855.63;5081435;28;20552;-71
2022/07/07 00:44:12;;;;;;;3.65;2.45;;;;;;;15.56;75.71;96846.22;5080925;28;20207;-71
2022/07/07 00:46:44;;;;;;;3.85;2.58;;;;;;;15.55;75.72;96847.22;5080905;28;20250;-70
2022/07/07 00:49:11;;;;;;;2.88;2.05;;;;;;;15.40;76.12;96856.31;5081439;28;20226;-72
2022/07/07 00:51:40;;;;;;;4.63;2.47;;;;;;;14.83;79.73;96850.22;5081600;28;20203;-70
2022/07/07 00:54:08;;;;;;;5.90;2.42;;;;;;;15.10;78.75;96843.34;5076519;28;20204;-70
2022/07/07 00:56:34;;;;;;;7.05;2.90;;;;;;;15.25;78.47;96847.63;5075139;28;20569;-71
2022/07/07 00:59:06;;;;;;;3.83;2.50;;;;;;;15.35;77.78;96846.28;5076327;28;20227;-70
2022/07/07 01:01:34;;;;;;;4.78;2.70;;;;;;;15.34;77.78;96838.50;5076583;28;20204;-70
2022/07/07 01:04:03;;;;;;;3.97;2.63;;;;;;;15.22;77.90;96831.22;5075167;28;21128;-70
2022/07/07 01:06:30;;;;;;;3.42;2.47;;;;;;;15.12;77.88;96834.19;5076442;28;20318;-70
2022/07/07 01:08:59;;;;;;;6.82;2.20;;;;;;;15.31;78.51;96836.19;5076576;28;20320;-70
2022/07/07 01:11:26;;;;;;;3.40;2.38;;;;;;;15.15;78.51;96833.78;5080424;28;20203;-70
2022/07/07 01:13:52;;;;;;;3.70;2.50;;;;;;;15.26;78.49;96834.13;5079346;28;20204;-70
2022/07/07 01:16:19;;;;;;;5.18;2.60;;;;;;;15.25;78.86;96834.34;5079777;28;20234;-70
2022/07/07 01:18:45;;;;;;;5.93;2.50;;;;;;;15.24;78.38;96827.38;5080009;28;20220;-70
2022/07/07 01:21:14;;;;;;;3.53;2.28;;;;;;;15.38;78.30;96824.63;5079646;28;20203;-70
2022/07/07 01:23:42;;;;;;;4.68;2.58;;;;;;;15.39;78.14;96830.78;5079211;28;20200;-70
2022/07/07 01:26:08;;;;;;;6.30;2.40;;;;;;;15.17;78.57;96829.09;5079675;28;20219;-70
2022/07/07 01:28:35;;;;;;;4.10;2.28;;;;;;;15.26;78.67;96828.00;5079338;28;20207;-70
2022/07/07 01:31:01;;;;;;;4.82;2.70;;;;;;;15.32;79.68;96821.91;5079587;28;20200;-70
2022/07/07 01:33:27;;;;;;;4.55;2.45;;;;;;;14.94;81.08;96822.34;5075815;28;20207;-70
2022/07/07 01:35:54;;;;;;;5.18;2.72;;;;;;;15.28;81.35;96823.31;5079428;28;20224;-70
2022/07/07 01:38:20;;;;;;;5.30;2.40;;;;;;;15.41;79.79;96820.78;5079501;28;20204;-72
2022/07/07 01:40:48;;;;;;;4.05;2.72;;;;;;;15.61;79.09;96816.44;5079759;28;20214;-72
2022/07/07 01:43:15;;;;;;;5.38;2.60;;;;;;;15.24;80.29;96808.78;5078249;28;20668;-72
2022/07/07 01:45:41;;;;;;;3.45;2.38;;;;;;;15.13;80.74;96811.91;5079984;28;20207;-72
2022/07/07 01:48:08;;;;;;;4.28;2.40;;;;;;;15.39;79.25;96813.00;5079512;28;20196;-73
2022/07/07 01:50:34;;;;;;;4.72;2.60;;;;;;;15.55;79.16;96801.25;5079388;28;20224;-73
2022/07/07 01:53:01;;;;;;;3.75;2.50;;;;;;;15.35;80.03;96801.13;5079098;28;20592;-72
2022/07/07 01:55:27;;;;;;;4.43;2.40;;;;;;;15.43;80.47;96802.81;5079205;28;20196;-72
2022/07/07 01:57:55;;;;;;;4.45;2.70;;;;;;;15.64;79.72;96797.44;5078671;28;20711;-72
2022/07/07 02:00:22;;;;;;;3.90;2.40;;;;;;;15.52;80.04;96799.00;5079064;28;20306;-72
2022/07/07 02:02:48;;;;;;;4.78;2.55;;;;;;;15.63;81.36;96806.41;5079659;28;20214;-73
2022/07/07 02:05:15;;;;;;;3.78;2.30;;;;;;;15.70;79.83;96797.47;5078511;28;20428;-73
2022/07/07 02:07:41;;;;;;;6.72;2.83;;;;;;;15.42;80.66;96791.34;5079462;28;20203;-71
2022/07/07 02:10:08;;;;;;;9.70;2.72;;;;;;;15.35;82.22;96789.66;5078836;28;20322;-71
2022/07/07 02:12:34;;;;;;;3.72;2.60;;;;;;;15.50;81.87;96793.06;5078148;28;20219;-71
2022/07/07 02:15:02;;;;;;;3.58;2.35;;;;;;;15.62;83.21;96794.19;5078883;28;20196;-71
2022/07/07 02:17:29;;;;;;;3.90;2.47;;;;;;;15.64;82.85;96794.78;5079248;28;20254;-71
2022/07/07 02:19:55;;;;;;;3.92;2.50;;;;;;;15.74;81.22;96792.59;5078389;28;20230;-71
2022/07/07 02:22:22;;;;;;;3.08;2.17;;;;;;;15.74;81.02;96789.94;5078380;28;20578;-71
2022/07/07 02:24:48;;;;;;;2.75;2.20;;;;;;;15.70;80.85;96788.69;5078218;28;20200;-70
2022/07/07 02:27:15;;;;;;;5.00;2.60;;;;;;;15.85;81.43;96783.06;5078491;28;20192;-70
2022/07/07 02:29:42;;;;;;;6.55;3.13;;;;;;;15.84;82.02;96789.38;5078810;28;20575;-70
2022/07/07 02:32:09;;;;;;;6.20;2.63;;;;;;;16.07;80.14;96787.25;5078938;28;20626;-70
2022/07/07 02:34:36;;;;;;;6.35;2.80;;;;;;;15.95;78.24;96788.03;5074485;28;20211;-71
2022/07/07 02:37:02;;;;;;;3.92;2.40;;;;;;;15.90;78.04;96783.28;5078312;28;20227;-71
2022/07/07 02:39:29;;;;;;;6.05;2.65;;;;;;;15.90;76.71;96785.16;5077950;28;20234;-71
2022/07/07 02:41:55;;;;;;;5.43;2.50;;;;;;;15.95;77.37;96783.53;5078960;28;20200;-71
2022/07/07 02:44:22;;;;;;;6.85;2.78;;;;;;;15.84;77.02;96785.13;5077231;28;20667;-71
2022/07/07 02:46:48;;;;;;;6.88;2.67;;;;;;;15.81;77.39;96777.50;5078315;28;20196;-71
2022/07/07 02:49:17;;;;;;;5.45;2.85;;;;;;;15.97;77.95;96778.84;5078311;28;20220;-71
2022/07/07 02:51:43;;;;;;;4.28;2.85;;;;;;;15.95;77.00;96780.88;5074911;28;20235;-71
2022/07/07 02:54:09;;;;;;;4.45;2.78;;;;;;;15.79;78.38;96771.59;5077183;28;20207;-71
2022/07/07 02:56:36;;;;;;;8.07;3.00;;;;;;;15.70;79.36;96778.88;5078310;28;20228;-71
2022/07/07 02:59:02;;;;;;;4.78;2.90;;;;;;;15.81;77.91;96774.84;5078090;28;20224;-71
2022/07/07 03:01:29;;;;;;;5.07;3.13;;;;;;;15.75;78.68;96767.69;5077793;28;20210;-71
2022/07/07 03:03:55;;;;;;;8.52;3.15;;;;;;;15.90;77.29;96771.84;5077551;28;20203;-71
2022/07/07 03:06:23;;;;;;;7.05;3.20;;;;;;;15.89;76.57;96771.00;5077340;28;20196;-71
2022/07/07 03:08:50;;;;;;;3.63;2.90;;;;;;;15.93;77.88;96777.56;5077584;28;20240;-71
2022/07/07 03:11:16;;;;;;;5.18;2.97;;;;;;;15.99;78.31;96778.66;5078817;28;20200;-71
2022/07/07 03:13:44;;;;;;;4.50;2.90;;;;;;;16.01;78.25;96772.13;5078046;28;20223;-71
2022/07/07 03:16:10;;;;;;;10.02;3.30;;;;;;;15.91;77.69;96769.00;5077224;28;20536;-71
2022/07/07 03:18:37;;;;;;;8.90;3.10;;;;;;;15.95;79.66;96778.22;5078001;28;20211;-71
2022/07/07 03:21:03;;;;;;;8.65;3.15;;;;;;;16.01;77.71;96774.78;5078314;28;20199;-71
2022/07/07 03:23:31;;;;;;;4.50;3.05;;;;;;;15.91;76.96;96776.97;5076804;28;20208;-71
2022/07/07 03:25:57;;;;;;;7.85;3.08;;;;;;;16.01;77.32;96774.78;5076795;28;20196;-71
2022/07/07 03:28:24;;;;;;;6.07;3.00;;;;;;;15.99;77.25;96783.97;5077755;28;20200;-70
2022/07/07 03:30:51;;;;;;;5.30;2.90;;;;;;;16.19;76.65;96775.06;5077467;28;20611;-70
2022/07/07 03:33:17;;;;;;;4.85;3.00;;;;;;;16.09;78.06;96782.59;5073527;28;21093;-70
2022/07/07 03:35:44;;;;;;;6.65;2.97;;;;;;;16.03;79.89;96777.22;5077304;28;20203;-71
2022/07/07 03:38:10;;;;;;;4.88;2.97;;;;;;;16.03;76.10;96774.56;5077025;28;20565;-71
2022/07/07 03:40:38;;;;;;;6.10;2.95;;;;;;;16.06;76.47;96774.16;5077744;28;20261;-71
2022/07/07 03:43:04;;;;;;;6.10;2.95;;;;;;;15.83;76.13;96789.59;5076961;28;20210;-71
2022/07/07 03:45:31;;;;;;;4.40;2.63;;;;;;;15.79;76.85;96792.84;5077823;28;20211;-71
2022/07/07 03:47:57;;;;;;;10.18;3.10;;;;;;;15.83;76.35;96792.25;5077076;28;20203;-71
2022/07/07 03:50:24;;;;;;;3.75;2.67;;;;;;;15.84;77.20;96779.78;5077769;28;20230;-71
2022/07/07 03:52:51;;;;;;;4.70;3.05;;;;;;;15.83;77.50;96778.16;5076505;28;20667;-71
2022/07/07 03:55:17;;;;;;;4.28;2.83;;;;;;;15.92;77.53;96783.94;5077363;28;20574;-71
2022/07/07 03:57:45;;;;;;;5.85;3.10;;;;;;;15.91;76.40;96776.97;5076738;28;20216;-71
2022/07/07 04:00:12;;;;;;;7.00;3.20;;;;;;;15.88;77.89;96772.06;5077446;28;20774;-71
2022/07/07 04:02:39;;;;;;;4.38;3.63;;;;;;;15.96;78.60;96776.38;5076056;28;20310;-71
2022/07/07 04:05:07;;;;;;;8.88;2.90;;;;;;;15.99;76.97;96774.13;5077579;28;20200;-71
2022/07/07 04:07:34;;;;;;;4.07;2.67;;;;;;;16.04;76.94;96766.41;5076709;28;20202;-71
2022/07/07 04:10:01;;;;;;;5.32;3.10;;;;;;;16.03;78.56;96775.38;5077167;28;20330;-71
2022/07/07 04:12:27;;;;;;;5.10;3.17;;;;;;;16.10;77.60;96768.28;5076458;28;20207;-71
2022/07/07 04:14:55;;;;;;;5.82;3.33;;;;;;;16.19;77.32;96763.59;5076936;28;20986;-71
2022/07/07 04:17:21;;;;;;;5.78;2.80;;;;;;;16.18;77.13;96768.09;5075989;28;20223;-71
2022/07/07 04:19:48;;;;;;;7.18;2.83;;;;;;;15.99;75.43;96766.16;5076881;28;20238;-71
2022/07/07 04:22:14;;;;;;;6.20;2.72;;;;;;;16.02;74.07;96759.63;5076487;28;20671;-71
2022/07/07 04:24:41;;;;;;;3.75;2.63;;;;;;;15.83;73.89;96762.19;5077041;28;20678;-71
2022/07/07 04:27:08;;;;;;;6.05;2.70;;;;;;;16.09;74.13;96753.34;5076469;28;20668;-71
2022/07/07 04:29:35;;;;;;;6.00;3.03;;;;;;;16.17;77.09;96753.16;5076409;28;20259;-71
2022/07/07 04:32:03;;;;;;;4.90;3.03;;;;;;;16.36;77.07;96749.78;5077231;28;20206;-71
2022/07/07 04:34:30;;;;;;;5.25;2.95;;;;;;;16.41;76.99;96752.66;5073027;28;20204;-71
2022/07/07 04:36:58;;;;;;;5.30;3.10;;;;;;;16.31;77.37;96749.56;5076512;28;20225;-71
2022/07/07 04:39:24;;;;;;;5.13;2.90;;;;;;;16.50;76.28;96751.47;5076431;28;20332;-71
2022/07/07 04:41:51;;;;;;;5.28;3.20;;;;;;;16.46;76.87;96750.22;5076642;28;20770;-71
2022/07/07 04:44:17;;;;;;;8.00;3.17;;;;;;;16.57;75.44;96752.28;5076079;28;20200;-71
2022/07/07 04:46:43;;;;;;;7.18;3.03;;;;;;;16.57;76.43;96760.25;5080742;28;20199;-71
2022/07/07 04:49:11;;;;;;;8.57;3.17;;;;;;;16.31;73.35;96757.53;5080466;28;20230;-71
2022/07/07 04:51:38;;;;;;;6.45;2.65;;;;;;;16.19;73.90;96758.25;5080809;28;20664;-71
2022/07/07 04:54:05;;;;;;;6.15;3.00;;;;;;;16.36;73.83;96738.34;5080018;28;21042;-71
2022/07/07 04:56:31;;;;;;;7.07;3.25;;;;;;;16.56;75.18;96740.84;5080639;28;21094;-71
2022/07/07 04:58:58;;;;;;;4.93;3.28;;;;;;;16.66;76.19;96737.75;5079947;28;20239;-71
2022/07/07 05:01:24;;;;;;;5.72;3.00;;;;;;;16.76;73.75;96736.38;5080540;28;20206;-71
2022/07/07 05:03:51;;;;;;;6.53;2.90;;;;;;;16.85;75.38;96734.31;5079000;28;20691;-71
2022/07/07 05:06:19;;;;;;;4.57;2.92;;;;;;;16.85;75.26;96739.66;5079175;28;20200;-71
2022/07/07 05:08:45;;;;;;;8.15;2.90;;;;;;;16.83;73.58;96747.03;5079722;28;20219;-73
2022/07/07 05:11:11;;;;;;;6.90;2.97;;;;;;;16.82;71.63;96745.38;5079762;28;20211;-73
2022/07/07 05:13:38;;;;;;;5.57;2.83;;;;;;;16.53;72.29;96753.72;5078387;28;20211;-73
2022/07/07 05:16:05;;;;;;;4.18;2.67;;;;;;;16.81;76.00;96751.72;5079827;28;20204;-73
2022/07/07 05:18:32;;;;;;;3.83;2.67;;;;;;;16.71;72.91;96759.28;5079283;28;20219;-73
2022/07/07 05:20:59;;;;;;;4.28;2.85;;;;;;;16.57;73.94;96752.28;5079110;28;20199;-73
2022/07/07 05:23:27;;;;;;;4.78;3.20;;;;;;;16.40;73.80;96751.03;5079190;28;20993;-73
2022/07/07 05:25:54;;;;;;;7.40;3.33;;;;;;;16.29;73.91;96764.06;5079184;28;20204;-73
2022/07/07 05:28:21;;;;;;;6.45;2.70;;;;;;;16.73;74.24;96751.94;5079065;28;20196;-72
2022/07/07 05:30:47;;;;;;;5.22;3.08;;;;;;;16.80;74.74;96752.75;5078773;28;20769;-72
2022/07/07 05:33:14;;;;;;;5.15;3.08;;;;;;;16.98;72.60;96744.97;5076295;28;20195;-73
2022/07/07 05:35:40;;;;;;;4.60;3.03;;;;;;;16.51;72.49;96753.09;5078695;28;20215;-73
2022/07/07 05:38:07;;;;;;;6.28;2.67;;;;;;;16.90;73.97;96750.50;5078344;28;20216;-73
2022/07/07 05:40:35;;;;;;;4.20;2.88;;;;;;;16.83;72.94;96752.34;5079656;28;20227;-73
2022/07/07 05:43:01;;;;;;;5.60;2.80;;;;;;;16.73;72.51;96752.72;5079379;28;20215;-73
2022/07/07 05:45:28;;;;;;;6.80;2.85;;;;;;;16.87;72.34;96743.75;5078388;28;20207;-73
2022/07/07 05:47:54;;;;;;;6.85;2.65;;;;;;;17.04;74.36;96747.63;5079658;28;20196;-73
2022/07/07 05:50:21;;;;;;;9.40;2.88;;;;;;;16.83;71.50;96747.03;5079066;28;20226;-73
2022/07/07 05:52:47;;;;;;;6.97;2.78;;;;;;;17.20;73.66;96736.59;5078722;28;21102;-73
2022/07/07 05:55:14;;;;;;;4.13;2.55;;;;;;;16.98;71.23;96742.31;5078993;28;20204;-73
2022/07/07 05:57:41;;;;;;;3.38;2.40;;;;;;;16.80;72.11;96750.91;5079729;28;20227;-73
2022/07/07 06:00:09;;;;;;;7.90;2.90;;;;;;;16.81;71.78;96749.88;5078775;28;20220;-72
2022/07/07 06:02:35;;;;;;;8.05;2.90;;;;;;;16.61;71.82;96748.19;5078379;28;20215;-72
2022/07/07 06:05:02;;;;;;;3.67;2.53;;;;;;;16.84;73.54;96748.66;5079803;28;20219;-72
2022/07/07 06:07:28;;;;;;;5.72;2.50;;;;;;;16.64;72.18;96743.28;5078810;28;20356;-72
2022/07/07 06:09:55;;;;;;;5.57;2.67;;;;;;;16.58;73.25;96740.63;5079009;28;20229;-73
2022/07/07 06:12:22;;;;;;;7.63;2.60;;;;;;;17.02;76.83;96746.19;5078028;28;20211;-73
2022/07/07 06:14:50;;;;;;;5.43;2.78;;;;;;;17.47;79.68;96741.72;5079314;28;20196;-73
2022/07/07 06:17:16;;;;;;;4.75;2.70;;;;;;;17.59;76.47;96740.06;5078617;28;20215;-73
2022/07/07 06:19:43;;;;;;;4.63;2.92;;;;;;;17.67;73.68;96741.66;5079047;28;20737;-73
2022/07/07 06:22:10;;;;;;;4.20;2.75;;;;;;;17.75;70.72;96739.63;5078448;28;20199;-73
2022/07/07 06:24:36;;;;;;;6.63;2.50;;;;;;;17.93;73.42;96742.44;5078972;28;20601;-73
2022/07/07 06:27:03;;;;;;;4.75;2.95;;;;;;;18.03;70.61;96742.81;5078349;28;20200;-73
2022/07/07 06:29:29;;;;;;;6.53;2.60;;;;;;;18.08;71.68;96735.00;5079109;28;20228;-73
2022/07/07 06:31:57;;;;;;;8.65;2.90;;;;;;;17.99;72.13;96738.94;5078759;28;20200;-73
2022/07/07 06:34:23;;;;;;;5.80;2.40;;;;;;;17.63;68.69;96738.63;5074260;28;20837;-73
2022/07/07 06:36:50;;;;;;;5.43;2.60;;;;;;;17.39;69.60;96739.28;5078174;28;20734;-73
2022/07/07 06:39:16;;;;;;;4.40;2.80;;;;;;;17.69;70.54;96745.78;5078853;28;20232;-73
2022/07/07 06:41:43;;;;;;;6.18;2.53;;;;;;;18.00;69.42;96738.72;5077961;28;20210;-73
2022/07/07 06:44:10;;;;;;;3.20;2.10;;;;;;;17.83;69.16;96745.56;5077480;28;20204;-71
2022/07/07 06:46:37;;;;;;;4.82;2.72;;;;;;;17.77;68.29;96741.03;5078642;28;20241;-71
2022/07/07 06:49:05;;;;;;;6.25;2.35;;;;;;;18.08;69.34;96740.34;5077977;28;20220;-71
2022/07/07 06:51:31;;;;;;;5.15;2.38;;;;;;;17.71;68.18;96739.22;5077594;28;20204;-71
2022/07/07 06:53:58;;;;;;;10.02;2.47;;;;;;;18.04;67.14;96741.78;5078149;28;20203;-71
2022/07/07 06:56:25;;;;;;;5.05;1.70;;;;;;;17.96;68.13;96736.66;5076264;28;20227;-71
2022/07/07 06:58:51;;;;;;;3.78;2.00;;;;;;;18.13;67.19;96738.66;5077428;28;20226;-71
2022/07/07 07:01:18;;;;;;;4.30;2.10;;;;;;;18.34;68.33;96736.56;5078372;28;20200;-71
2022/07/07 07:03:44;;;;;;;5.28;2.30;;;;;;;18.36;65.91;96734.47;5077373;28;20257;-72
2022/07/07 07:06:14;;;;;;;3.60;1.90;;;;;;;18.50;65.51;96733.38;5077859;28;20207;-72
2022/07/07 07:08:40;;;;;;;5.72;2.05;;;;;;;18.73;65.80;96733.66;5077544;28;20211;-72
2022/07/07 07:11:06;;;;;;;3.10;1.80;;;;;;;18.80;64.05;96730.94;5078221;28;20223;-72
2022/07/07 07:13:33;;;;;;;4.53;2.10;;;;;;;19.10;64.20;96736.28;5076980;28;20218;-72
2022/07/07 07:16:00;;;;;;;4.05;1.63;;;;;;;18.76;64.71;96738.59;5077867;28;20196;-72
2022/07/07 07:18:27;;;;;;;2.35;1.50;;;;;;;18.63;62.65;96724.50;5074267;28;20220;-72
2022/07/07 07:20:54;;;;;;;4.13;1.60;;;;;;;18.89;61.88;96719.81;5077804;28;20211;-72
2022/07/07 07:23:22;;;;;;;5.72;1.90;;;;;;;19.25;59.73;96709.28;5076710;28;20207;-73
2022/07/07 07:25:48;;;;;;;2.70;1.58;;;;;;;19.36;61.47;96716.56;5077597;28;20208;-73
2022/07/07 07:28:14;;;;;;;4.28;1.42;;;;;;;19.32;59.59;96720.72;5077702;28;20212;-72
2022/07/07 07:30:41;;;;;;;2.17;1.15;;;;;;;19.17;58.74;96723.72;5077492;28;20230;-73
2022/07/07 07:33:07;;;;;;;3.60;1.50;;;;;;;19.28;60.37;96730.19;5076704;28;20200;-73
2022/07/07 07:35:34;;;;;;;2.28;1.60;;;;;;;19.45;60.38;96724.09;5077733;28;20204;-73
2022/07/07 07:38:00;;;;;;;3.92;1.45;;;;;;;19.37;59.05;96724.34;5077368;28;20220;-72
2022/07/07 07:40:28;;;;;;;2.25;1.40;;;;;;;19.15;60.98;96733.78;5076829;28;21290;-74
2022/07/07 07:42:55;;;;;;;2.22;1.30;;;;;;;19.16;59.96;96730.09;5076294;28;20318;-73
2022/07/07 07:45:23;;;;;;;3.50;1.52;;;;;;;19.36;60.44;96732.59;5077178;28;20200;-73
2022/07/07 07:47:50;;;;;;;3.20;1.50;;;;;;;19.22;61.25;96729.22;5077129;28;20971;-73
2022/07/07 07:50:18;;;;;;;4.97;1.50;;;;;;;19.42;60.44;96735.22;5077443;28;20223;-72
2022/07/07 07:52:46;;;;;;;8.82;1.33;;;;;;;19.44;58.28;96743.03;5076559;28;20212;-72
2022/07/07 07:55:15;;;;;;;2.35;1.50;;;;;;;19.43;59.07;96744.88;5077128;28;20195;-73
2022/07/07 07:57:43;;;;;;;2.05;1.27;;;;;;;19.40;58.56;96744.47;5077487;28;20200;-72
2022/07/07 08:00:12;;;;;;;4.18;1.33;;;;;;;19.56;59.40;96741.25;5078022;28;20223;-73
2022/07/07 08:02:39;;;;;;;2.65;1.50;;;;;;;19.66;59.36;96745.88;5076150;28;20215;-73
2022/07/07 08:05:06;;;;;;;5.43;1.60;;;;;;;19.45;58.65;96748.16;5076071;28;20221;-73
2022/07/07 08:07:33;;;;;;;3.50;2.17;;;;;;;19.46;57.42;96740.94;5077517;28;20679;-72
2022/07/07 08:09:59;;;;;;;2.42;1.30;;;;;;;19.45;57.15;96752.66;5076387;28;20650;-72
2022/07/07 08:12:26;;;;;;;3.03;1.45;;;;;;;19.46;58.78;96747.09;5075983;28;20203;-73
2022/07/07 08:14:54;;;;;;;3.70;1.67;;;;;;;19.69;58.96;96745.44;5076513;28;20721;-73
2022/07/07 08:17:20;;;;;;;4.80;1.77;;;;;;;20.16;60.09;96747.41;5073320;28;20210;-73
2022/07/07 08:19:47;;;;;;;2.22;1.50;;;;;;;20.45;58.14;96741.31;5078097;28;20223;-73
2022/07/07 08:22:13;;;;;;;7.25;1.80;;;;;;;20.71;57.33;96733.75;5079675;28;20446;-73
2022/07/07 08:24:40;;;;;;;3.25;1.52;;;;;;;20.52;57.90;96731.31;5080571;28;20212;-73
2022/07/07 08:27:06;;;;;;;3.80;1.70;;;;;;;20.25;59.56;96735.38;5080867;28;20203;-72
2022/07/07 08:29:37;;;;;;;2.80;1.40;;;;;;;19.81;58.23;96732.97;5080831;28;20212;-73
2022/07/07 08:32:06;;;;;;;4.57;1.30;;;;;;;19.78;58.28;96733.44;5081272;28;20660;-74
2022/07/07 08:34:33;;;;;;;2.35;1.40;;;;;;;19.75;59.78;96731.19;5080170;28;20195;-73
2022/07/07 08:36:59;;;;;;;3.25;1.63;;;;;;;19.91;60.21;96733.31;5080784;28;20567;-74
2022/07/07 08:39:26;;;;;;;7.22;2.03;;;;;;;20.48;59.95;96730.97;5080816;28;20770;-73
2022/07/07 08:41:52;;;;;;;4.72;1.70;;;;;;;20.53;58.37;96732.94;5080830;28;20273;-73
2022/07/07 08:44:19;;;;;;;4.78;1.50;;;;;;;20.34;57.74;96723.31;5079458;28;20222;-74
2022/07/07 08:46:46;;;;;;;6.00;1.63;;;;;;;20.60;57.13;96728.34;5077865;28;20211;-74
2022/07/07 08:49:14;;;;;;;3.90;1.95;;;;;;;20.81;57.46;96722.50;5080517;28;20226;-74
2022/07/07 08:51:42;;;;;;;3.00;1.50;;;;;;;20.90;57.20;96720.09;5080282;28;20207;-73
2022/07/07 08:54:10;;;;;;;3.42;1.63;;;;;;;20.89;56.41;96712.28;5079693;28;20231;-73
2022/07/07 08:56:38;;;;;;;2.60;1.67;;;;;;;20.76;55.43;96717.00;5080903;28;20208;-75
2022/07/07 08:59:05;;;;;;;6.35;1.80;;;;;;;20.82;55.20;96721.47;5083007;28;20228;-76
2022/07/07 09:01:31;;;;;;;3.20;1.50;;;;;;;20.70;54.07;96715.22;5082787;28;20203;-75
2022/07/07 09:03:58;;;;;;;2.97;1.30;;;;;;;20.50;54.98;96722.69;5079412;28;20441;-70
2022/07/07 09:06:26;;;;;;;2.05;1.15;;;;;;;20.43;54.96;96733.50;5079896;28;20203;-70
2022/07/07 09:08:53;;;;;;;2.30;1.20;;;;;;;20.29;55.17;96732.03;5080999;28;20215;-71
2022/07/07 09:11:25;;;;;;;1.92;1.08;;;;;;;20.39;55.90;96736.84;5079620;28;20552;-71
2022/07/07 09:13:52;;;;;;;4.35;1.42;;;;;;;20.75;56.44;96740.31;5078683;28;20223;-71
2022/07/07 09:16:19;;;;;;;2.05;1.40;;;;;;;20.91;55.46;96727.09;5079110;28;20203;-71
2022/07/07 09:18:47;;;;;;;3.03;1.50;;;;;;;21.21;55.58;96724.34;5080258;28;20318;-71
2022/07/07 09:21:29;;;;;;;2.38;1.27;;;;;;;21.51;53.84;96731.28;5079205;28;20206;-71
2022/07/07 09:23:57;;;;;;;2.53;0.90;;;;;;;20.91;54.95;96735.13;5078639;28;20754;-71
2022/07/07 09:26:39;;;;;;;4.13;1.90;;;;;;;20.86;54.78;96745.72;5079396;28;20212;-71
2022/07/07 09:29:07;;;;;;;4.30;1.80;;;;;;;20.68;56.58;96747.56;5078971;28;20211;-71
2022/07/07 09:31:54;;;;;;;4.10;1.50;;;;;;;20.64;55.77;96738.34;5077838;28;20208;-71
2022/07/07 09:34:22;;;;;;;3.50;1.80;;;;;;;20.44;56.60;96740.50;5078850;28;20346;-71
2022/07/07 09:39:43;;;;;;;3.72;1.63;;;;;;;20.49;57.04;96737.13;5079582;28;20254;-71
2022/07/07 09:42:23;;;;;;;2.17;1.20;;;;;;;20.21;57.50;96734.19;5078701;28;20211;-71
2022/07/07 09:44:52;;;;;;;3.13;1.27;;;;;;;20.02;58.25;96735.25;5078929;28;20199;-71
2022/07/07 09:47:20;;;;;;;4.35;2.05;;;;;;;20.07;58.00;96732.69;5075257;28;20200;-71
2022/07/07 09:49:59;;;;;;;4.63;2.45;;;;;;;20.16;58.78;96742.06;5079313;28;20314;-71
2022/07/07 09:52:27;;;;;;;2.97;1.77;;;;;;;20.31;59.31;96743.34;5078326;28;20206;-71
2022/07/07 09:54:54;;;;;;;5.55;2.15;;;;;;;20.19;59.43;96747.00;5079678;28;20199;-71
2022/07/07 09:57:20;;;;;;;5.35;2.10;;;;;;;20.18;59.67;96745.34;5077963;28;20294;-71
2022/07/07 09:59:47;;;;;;;4.05;2.70;;;;;;;20.18;60.33;96740.00;5078984;28;20232;-70
2022/07/07 10:02:19;;;;;;;4.13;2.20;;;;;;;20.19;59.43;96741.63;5077771;28;20204;-71
2022/07/07 10:04:48;;;;;;;3.63;1.88;;;;;;;20.14;60.13;96738.81;5078141;28;20203;-71
2022/07/07 10:07:18;;;;;;;3.28;2.10;;;;;;;20.12;60.07;96734.72;5078115;28;20196;-71
2022/07/07 10:09:51;;;;;;;6.05;2.38;;;;;;;20.09;60.61;96746.69;5079042;28;20246;-71
2022/07/07 10:12:18;;;;;;;5.53;2.30;;;;;;;19.89;60.44;96748.72;5078173;28;20253;-71
2022/07/07 10:14:45;;;;;;;2.63;1.95;;;;;;;19.90;60.60;96742.34;5079429;28;20207;-71
2022/07/07 10:17:14;;;;;;;3.75;2.08;;;;;;;19.86;60.68;96740.34;5078659;28;20200;-71
2022/07/07 10:19:41;;;;;;;3.83;2.60;;;;;;;19.92;61.41;96740.31;5078810;28;20232;-71
2022/07/07 10:22:08;;;;;;;3.78;2.13;;;;;;;20.02;61.48;96745.97;5078905;28;20211;-71
2022/07/07 10:24:35;;;;;;;3.65;2.10;;;;;;;19.99;60.96;96748.25;5078337;28;20206;-71
2022/07/07 10:27:05;;;;;;;11.20;2.83;;;;;;;20.12;61.61;96751.59;5078120;28;20253;-71
2022/07/07 10:29:40;;;;;;;5.50;2.42;;;;;;;20.14;60.99;96754.03;5078582;28;20220;-71
2022/07/07 10:32:08;;;;;;;7.70;2.45;;;;;;;20.05;61.98;96748.19;5078960;28;21023;-71
2022/07/07 10:34:37;;;;;;;3.97;2.40;;;;;;;20.15;62.68;96758.34;5077779;28;20731;-71
2022/07/07 10:37:08;;;;;;;5.55;2.42;;;;;;;20.19;62.41;96752.34;5078507;28;20245;-71
2022/07/07 10:39:42;;;;;;;4.00;2.22;;;;;;;20.29;62.35;96748.09;5078623;28;20242;-71
2022/07/07 10:42:45;;;;;;;4.07;2.53;;;;;;;20.52;62.14;96748.22;5077335;28;20296;-71
2022/07/07 10:45:11;;;;;;;4.50;2.90;;;;;;;20.52;62.64;96750.06;5078387;28;20614;-70
2022/07/07 10:47:38;;;;;;;3.63;2.45;;;;;;;20.61;61.65;96746.03;5075274;28;20251;-70
2022/07/07 10:50:24;;;;;;;4.50;2.33;;;;;;;20.74;60.02;96740.53;5078103;28;20681;-71
2022/07/07 10:52:50;;;;;;;7.18;2.58;;;;;;;20.50;60.91;96738.78;5077545;28;20249;-71
2022/07/07 10:55:17;;;;;;;6.13;2.25;;;;;;;20.55;60.49;96731.69;5078348;28;20207;-71
2022/07/07 10:57:46;;;;;;;3.63;2.17;;;;;;;20.69;60.12;96740.38;5077993;28;20208;-70
2022/07/07 11:00:15;;;;;;;4.50;2.30;;;;;;;20.88;61.15;96735.56;5077558;28;20786;-71
2022/07/07 11:02:47;;;;;;;4.15;2.13;;;;;;;20.73;60.96;96739.72;5077497;28;20306;-71
2022/07/07 11:05:30;;;;;;;3.40;2.08;;;;;;;20.90;60.22;96725.44;5077424;28;20206;-70
2022/07/07 11:08:15;;;;;;;6.90;2.22;;;;;;;21.16;58.86;96740.31;5078197;28;20218;-71
2022/07/07 11:10:50;;;;;;;5.53;2.03;;;;;;;21.28;60.56;96739.25;5077882;28;20219;-71
2022/07/07 11:13:21;;;;;;;8.98;2.13;;;;;;;21.13;59.07;96730.03;5077490;28;20203;-71
2022/07/07 11:15:49;;;;;;;3.28;2.15;;;;;;;21.09;58.85;96734.22;5077651;28;20199;-71
2022/07/07 11:18:18;;;;;;;3.00;1.88;;;;;;;20.99;59.74;96734.78;5078121;28;20227;-71
2022/07/07 11:20:53;;;;;;;4.05;2.22;;;;;;;21.01;60.54;96731.88;5077958;28;20231;-71
2022/07/07 11:23:20;;;;;;;2.80;1.70;;;;;;;20.83;61.40;96736.50;5075985;28;20199;-71
2022/07/07 11:25:47;;;;;;;3.38;2.17;;;;;;;20.76;61.73;96741.13;5077715;28;20208;-70
2022/07/07 11:28:14;;;;;;;6.30;2.20;;;;;;;20.73;62.62;96746.94;5077980;28;20722;-70
2022/07/07 11:30:41;;;;;;;3.75;1.67;;;;;;;20.42;62.18;96761.31;5076726;28;20383;-70
2022/07/07 11:33:09;;;;;;;2.78;1.52;;;;;;;20.38;62.44;96744.06;5076362;28;20206;-70
2022/07/07 11:35:40;;;;;;;2.90;1.52;;;;;;;20.29;62.62;96753.44;5077846;28;20561;-71
2022/07/07 11:38:08;;;;;;;3.10;1.67;;;;;;;20.32;63.12;96749.50;5076795;28;20666;-71